Time;durP1;ratioP1;P1;durP2;ratioP2;P2;SDS_P1;SDS_P2;PMS_P1;PMS_P2;Temp;Humidity;BMP_temperature;BMP_pressure;BME280_temperature;BME280_humidity;BME280_pressure;Samples;Min_cycle;Max_cycle;Signal;HPM_P1;HPM_P2
2022/04/02 00:00:58;;;;;;;;;17.67;16.00;;;;;4.57;56.76;100920.34;5017146;28;45499;-70
2022/04/02 00:03:24;;;;;;;;;23.33;17.33;;;;;4.90;56.34;100977.84;5017591;28;45340;-70
2022/04/02 00:05:50;;;;;;;;;12.67;12.67;;;;;4.87;56.91;100962.25;5017136;28;46202;-67
2022/04/02 00:08:16;;;;;;;;;14.67;13.00;;;;;4.81;56.11;100979.31;5016792;28;45598;-68
2022/04/02 00:10:41;;;;;;;;;10.67;10.00;;;;;4.82;56.58;100988.06;5017065;28;45296;-68
2022/04/02 00:13:10;;;;;;;;;9.67;9.67;;;;;4.63;56.23;100946.28;5016048;28;45460;-69
2022/04/02 00:15:36;;;;;;;;;13.67;11.67;;;;;4.57;55.36;100965.94;5017005;28;45460;-68
2022/04/02 00:18:01;;;;;;;;;11.00;11.00;;;;;4.64;56.03;100981.38;5011900;28;45333;-68
2022/04/02 00:20:27;;;;;;;;;10.33;10.33;;;;;4.50;56.49;100958.56;4997255;28;45400;-69
2022/04/02 00:25:36;;;;;;;;;12.67;12.67;;;;;4.08;55.80;100896.38;5000531;28;45731;-72
2022/04/02 00:28:02;;;;;;;;;10.00;8.67;;;;;4.55;54.52;100986.25;4998944;28;45426;-69
2022/04/02 00:30:27;;;;;;;;;13.67;9.67;;;;;4.57;55.14;100984.38;5000720;28;45320;-68
2022/04/02 00:32:53;;;;;;;;;13.00;13.00;;;;;4.47;55.03;100978.03;5001893;28;45585;-68
2022/04/02 00:35:18;;;;;;;;;16.00;11.33;;;;;4.43;54.79;100980.97;5000947;28;45741;-68
2022/04/02 00:37:44;;;;;;;;;3.33;2.67;;;;;4.38;55.29;100977.75;4999227;28;45259;-69
2022/04/02 00:40:10;;;;;;;;;7.33;7.00;;;;;4.07;54.37;100907.84;4999182;28;45339;-69
2022/04/02 00:42:35;;;;;;;;;9.00;8.00;;;;;4.12;54.20;100929.44;5000623;28;45152;-68
2022/04/02 00:45:00;;;;;;;;;5.33;4.00;;;;;4.37;53.93;100970.81;5000364;28;46358;-68
2022/04/02 00:47:26;;;;;;;;;6.67;6.67;;;;;4.33;53.74;100964.91;4998901;28;45295;-69
2022/04/02 00:49:53;;;;;;;;;7.00;7.00;;;;;4.10;52.46;100923.44;5019739;28;45435;-68
2022/04/02 00:52:19;;;;;;;;;7.00;7.00;;;;;4.38;53.12;100978.59;5019226;28;45675;-68
2022/04/02 00:54:47;;;;;;;;;9.33;7.33;;;;;4.46;53.39;100976.34;5020113;28;45956;-70
2022/04/02 00:57:12;;;;;;;;;2.33;1.00;;;;;4.61;52.59;100978.94;5018775;28;45508;-68
2022/04/02 00:59:38;;;;;;;;;7.67;6.67;;;;;4.54;52.47;100984.56;5019904;28;45415;-67
2022/04/02 01:02:04;;;;;;;;;9.67;9.33;;;;;4.51;53.02;100971.63;5018620;28;45644;-69
2022/04/02 01:04:29;;;;;;;;;8.00;6.33;;;;;4.45;52.89;100961.50;5018504;28;48120;-68
2022/04/02 01:06:56;;;;;;;;;10.67;7.67;;;;;4.39;52.00;100964.50;5019802;28;45371;-69
2022/04/02 01:09:22;;;;;;;;;7.33;6.33;;;;;4.36;51.93;100964.69;5018513;28;45283;-69
2022/04/02 01:11:48;;;;;;;;;4.00;4.00;;;;;4.24;52.06;100954.97;5020138;28;45518;-69
2022/04/02 01:14:14;;;;;;;;;6.67;6.00;;;;;4.35;52.18;100973.53;5018547;28;47137;-70
2022/04/02 01:16:39;;;;;;;;;6.67;4.67;;;;;4.29;52.31;100939.72;5019407;28;45431;-69
2022/04/02 01:19:06;;;;;;;;;9.00;7.00;;;;;4.23;51.69;100958.56;5018498;28;45349;-69
2022/04/02 01:21:33;;;;;;;;;4.67;3.00;;;;;4.13;51.35;100947.75;5020266;28;45411;-70
2022/04/02 01:24:00;;;;;;;;;2.67;2.67;;;;;3.69;52.07;100890.09;5019886;28;46696;-70
2022/04/02 01:26:26;;;;;;;;;8.00;7.00;;;;;4.21;51.85;100970.97;5018607;28;45523;-67
2022/04/02 01:28:55;;;;;;;;;7.33;4.33;;;;;4.07;51.24;100947.31;5019488;28;45205;-69
2022/04/02 01:31:21;;;;;;;;;4.00;4.00;;;;;4.10;51.74;100947.97;5018345;28;45399;-69
2022/04/02 01:33:49;;;;;;;;;4.00;4.00;;;;;3.98;51.66;100960.09;5017563;28;46984;-68
2022/04/02 01:36:15;;;;;;;;;6.33;6.33;;;;;3.74;51.74;100927.44;5019392;28;45250;-68
2022/04/02 01:38:40;;;;;;;;;9.00;6.00;;;;;3.75;51.81;100955.44;5018870;28;45605;-68
2022/04/02 01:41:06;;;;;;;;;3.00;3.00;;;;;3.85;52.03;100980.22;5018304;28;45358;-69
2022/04/02 01:43:32;;;;;;;;;8.00;8.00;;;;;3.68;52.23;100969.91;5019418;28;46611;-68
2022/04/02 01:45:59;;;;;;;;;8.00;7.33;;;;;3.87;52.33;100980.97;5019488;28;45371;-68
2022/04/02 01:48:25;;;;;;;;;4.00;3.00;;;;;3.96;52.15;100984.81;5019462;28;45514;-67
2022/04/02 01:50:51;;;;;;;;;5.67;5.33;;;;;3.96;51.74;100995.31;5019413;28;45332;-69
2022/04/02 01:53:17;;;;;;;;;7.67;6.67;;;;;3.69;52.72;100963.72;5019068;28;46964;-69
2022/04/02 01:55:43;;;;;;;;;3.00;3.00;;;;;3.89;52.01;100992.25;5019162;28;45434;-70
2022/04/02 01:58:08;;;;;;;;;7.33;6.00;;;;;3.62;52.84;100955.34;5019043;28;45214;-68
2022/04/02 02:00:34;;;;;;;;;3.00;3.00;;;;;3.69;52.95;100971.59;5019543;28;45531;-69
2022/04/02 02:02:59;;;;;;;;;4.67;4.67;;;;;3.70;52.57;100978.53;5018894;28;46041;-68
2022/04/02 02:05:26;;;;;;;;;5.33;5.00;;;;;3.93;52.65;100999.00;5019021;28;45389;-68
2022/04/02 02:07:52;;;;;;;;;6.67;6.67;;;;;3.91;51.50;100979.84;5019031;28;45508;-68
2022/04/02 02:10:18;;;;;;;;;4.00;4.00;;;;;3.88;51.76;100985.28;5003024;28;45467;-69
2022/04/02 02:12:44;;;;;;;;;6.00;6.00;;;;;3.89;52.20;101010.66;5018819;28;45393;-69
2022/04/02 02:15:16;;;;;;;;;5.33;5.33;;;;;3.88;51.86;100990.56;5018939;28;45604;-68
2022/04/02 02:17:48;;;;;;;;;7.33;6.33;;;;;4.03;51.75;101012.44;5017319;28;45467;-69
2022/04/02 02:20:16;;;;;;;;;3.67;3.67;;;;;3.97;51.86;101004.91;5018847;28;45306;-68
2022/04/02 02:22:44;;;;;;;;;6.33;6.33;;;;;3.97;52.32;100995.22;5017292;28;47649;-68
2022/04/02 02:25:12;;;;;;;;;9.00;4.67;;;;;3.96;52.07;100987.44;5018460;28;45318;-69
2022/04/02 02:27:40;;;;;;;;;6.33;4.67;;;;;4.02;51.62;100997.59;5018716;28;45397;-67
2022/04/02 02:30:08;;;;;;;;;7.00;7.00;;;;;3.54;51.50;100925.22;5017308;28;45245;-66
2022/04/02 02:32:36;;;;;;;;;5.33;5.33;;;;;3.87;51.78;100988.03;5018074;28;45972;-68
2022/04/02 02:38:10;;;;;;;;;8.67;7.00;;;;;4.08;51.40;101006.88;5018308;28;45226;-68
2022/04/02 02:40:37;;;;;;;;;5.00;4.00;;;;;4.05;51.43;101007.09;5017461;28;45174;-69
2022/04/02 02:43:04;;;;;;;;;10.00;8.33;;;;;3.88;51.06;101008.97;5017113;28;46143;-68
2022/04/02 02:45:31;;;;;;;;;5.33;5.33;;;;;3.88;52.07;101006.34;5016088;28;45432;-69
2022/04/02 02:47:57;;;;;;;;;6.33;6.33;;;;;3.92;52.11;101018.34;5018755;28;45387;-68
2022/04/02 02:50:23;;;;;;;;;5.67;5.33;;;;;3.84;52.30;101004.84;5019112;28;45585;-69
2022/04/02 02:52:48;;;;;;;;;6.33;6.00;;;;;3.81;52.21;101018.19;5017962;28;45700;-68
2022/04/02 02:55:14;;;;;;;;;4.00;4.00;;;;;3.49;52.24;100971.97;5016680;28;45945;-67
2022/04/02 02:57:41;;;;;;;;;7.00;6.00;;;;;3.76;52.37;101033.38;5018266;28;45483;-69
2022/04/02 03:00:10;;;;;;;;;6.33;4.67;;;;;3.67;52.29;101012.91;5017113;28;45492;-69
2022/04/02 03:02:37;;;;;;;;;10.33;7.00;;;;;3.70;52.29;101011.88;5016518;28;48588;-69
2022/04/02 03:05:05;;;;;;;;;3.00;3.00;;;;;3.79;52.60;101042.84;5018158;28;45573;-70
2022/04/02 03:07:36;;;;;;;;;7.33;6.67;;;;;3.78;52.93;101035.91;5016565;28;45448;-69
2022/04/02 03:10:02;;;;;;;;;11.67;7.00;;;;;3.61;52.63;100992.25;5017876;28;45593;-70
2022/04/02 03:12:28;;;;;;;;;6.00;4.00;;;;;3.27;52.64;100946.16;5017777;28;47478;-70
2022/04/02 03:14:53;;;;;;;;;6.33;6.00;;;;;3.62;52.57;101004.47;5016556;28;45386;-69
2022/04/02 03:17:19;;;;;;;;;6.00;6.00;;;;;3.36;52.68;100956.94;5018422;28;45277;-68
2022/04/02 03:19:44;;;;;;;;;7.00;7.00;;;;;3.59;53.37;101013.34;5017007;28;45501;-70
2022/04/02 03:22:10;;;;;;;;;6.00;6.00;;;;;3.66;53.15;101037.53;5016239;28;45464;-68
2022/04/02 03:24:35;;;;;;;;;6.33;6.00;;;;;3.69;52.91;101039.97;5017653;28;45293;-70
2022/04/02 03:27:01;;;;;;;;;7.00;7.00;;;;;3.78;53.42;101041.16;5016477;28;45396;-68
2022/04/02 03:29:28;;;;;;;;;7.00;3.67;;;;;3.72;53.21;101049.44;5016708;28;45327;-69
2022/04/02 03:31:53;;;;;;;;;8.33;8.00;;;;;3.66;53.75;101048.03;5017368;28;45679;-68
2022/04/02 03:34:19;;;;;;;;;6.00;5.67;;;;;3.63;53.25;101038.56;5017449;28;45966;-71
2022/04/02 03:36:44;;;;;;;;;8.00;8.00;;;;;3.51;53.62;101022.66;5017751;28;45307;-68
2022/04/02 03:39:11;;;;;;;;;12.33;9.00;;;;;3.57;53.20;101017.88;5015934;28;45400;-68
2022/04/02 03:41:36;;;;;;;;;9.00;9.00;;;;;3.63;53.76;101048.22;5017394;28;46222;-68
2022/04/02 03:44:04;;;;;;;;;9.00;7.67;;;;;3.57;54.04;101044.16;5016081;28;46153;-72
2022/04/02 03:49:15;;;;;;;;;8.00;6.33;;;;;3.51;54.19;101039.28;5017756;28;45277;-68
2022/04/02 03:51:41;;;;;;;;;8.67;7.33;;;;;3.40;54.03;101032.94;5017293;28;46749;-69
2022/04/02 03:54:06;;;;;;;;;9.00;7.33;;;;;3.11;54.24;100987.41;5017152;28;45286;-69
2022/04/02 03:56:32;;;;;;;;;1.33;1.33;;;;;3.36;53.92;101030.50;5017331;28;45372;-69
2022/04/02 03:58:57;;;;;;;;;9.33;8.33;;;;;3.55;53.82;101048.66;5017246;28;45421;-69
2022/04/02 04:01:23;;;;;;;;;8.00;7.33;;;;;3.55;54.69;101055.72;5017350;28;46087;-71
2022/04/02 04:03:48;;;;;;;;;9.00;8.67;;;;;3.64;54.60;101057.81;5017338;28;45348;-68
2022/04/02 04:06:13;;;;;;;;;7.00;7.00;;;;;3.66;53.60;101058.56;5017169;28;45197;-70
2022/04/02 04:08:40;;;;;;;;;6.00;6.00;;;;;3.62;54.19;101057.06;5015986;28;45702;-69
2022/04/02 04:11:06;;;;;;;;;11.67;9.67;;;;;3.67;54.26;101065.50;5016987;28;46737;-69
2022/04/02 04:13:31;;;;;;;;;7.33;7.33;;;;;3.69;54.07;101061.00;5016899;28;45491;-70
2022/04/02 04:15:57;;;;;;;;;12.00;10.67;;;;;3.57;54.10;101061.72;5017305;28;45876;-70
2022/04/02 04:18:23;;;;;;;;;8.00;8.00;;;;;3.47;54.41;101047.44;5017302;28;45474;-68
2022/04/02 04:20:49;;;;;;;;;8.33;8.33;;;;;3.57;54.01;101057.31;5015477;28;48120;-70
2022/04/02 04:23:15;;;;;;;;;8.67;8.00;;;;;3.70;53.76;101074.97;5017037;28;45245;-69
2022/04/02 04:25:40;;;;;;;;;11.00;8.00;;;;;3.59;54.01;101079.09;5017665;28;45234;-70
2022/04/02 04:28:06;;;;;;;;;7.00;7.00;;;;;3.54;54.30;101080.31;5017413;28;45324;-69
2022/04/02 04:30:31;;;;;;;;;8.00;7.00;;;;;3.53;54.20;101083.88;5016476;28;47500;-68
2022/04/02 04:32:57;;;;;;;;;6.67;6.67;;;;;3.41;54.17;101080.19;5016452;28;45293;-68
2022/04/02 04:35:23;;;;;;;;;6.67;6.33;;;;;3.45;54.51;101080.84;5016804;28;45484;-69
2022/04/02 04:37:51;;;;;;;;;7.33;7.00;;;;;3.43;54.68;101067.81;5014831;28;45619;-69
2022/04/02 04:40:17;;;;;;;;;12.00;8.00;;;;;3.59;54.59;101094.84;5016302;28;46482;-69
2022/04/02 04:42:42;;;;;;;;;12.67;11.00;;;;;3.24;54.27;101041.75;5016413;28;45496;-69
2022/04/02 04:45:08;;;;;;;;;11.00;8.00;;;;;3.50;53.63;101100.66;5015154;28;45411;-70
2022/04/02 04:47:34;;;;;;;;;12.00;7.33;;;;;3.30;54.64;101057.16;5016894;28;45665;-70
2022/04/02 04:49:59;;;;;;;;;5.33;3.67;;;;;3.45;54.31;101097.47;5016449;28;45824;-68
2022/04/02 04:52:24;;;;;;;;;5.67;5.67;;;;;3.31;54.52;101084.28;5016305;28;45268;-69
2022/04/02 04:54:50;;;;;;;;;11.00;8.00;;;;;3.30;54.69;101083.44;5016697;28;45490;-71
2022/04/02 04:57:15;;;;;;;;;7.00;7.00;;;;;2.82;55.25;100982.06;5017073;28;45276;-69
2022/04/02 04:59:41;;;;;;;;;9.33;8.00;;;;;3.55;54.63;101109.13;5016526;28;45723;-69
2022/04/02 05:02:06;;;;;;;;;13.00;7.67;;;;;3.59;54.70;101105.38;5015101;28;45521;-69
2022/04/02 05:04:31;;;;;;;;;10.33;10.33;;;;;3.46;54.31;101104.41;5015468;28;45251;-70
2022/04/02 05:06:58;;;;;;;;;11.00;8.00;;;;;3.54;54.81;101111.84;5016609;28;45394;-69
2022/04/02 05:09:24;;;;;;;;;10.67;8.33;;;;;3.58;54.39;101110.72;5016903;28;46555;-69
2022/04/02 05:11:50;;;;;;;;;8.00;8.00;;;;;3.57;54.36;101123.03;5020188;28;45307;-68
2022/04/02 05:14:16;;;;;;;;;8.67;6.00;;;;;3.56;54.22;101116.06;5019165;28;45530;-69
2022/04/02 05:16:42;;;;;;;;;8.33;8.33;;;;;3.49;53.87;101098.13;5019535;28;45414;-69
2022/04/02 05:19:07;;;;;;;;;8.33;8.33;;;;;3.61;54.30;101131.59;5017486;28;47674;-68
2022/04/02 05:21:33;;;;;;;;;9.33;8.67;;;;;3.55;54.34;101131.94;5019074;28;45358;-67
2022/04/02 05:23:58;;;;;;;;;7.67;7.33;;;;;3.59;54.05;101131.66;5019792;28;45225;-70
2022/04/02 05:26:24;;;;;;;;;12.00;12.00;;;;;3.51;53.80;101122.53;5018304;28;45397;-69
2022/04/02 05:28:49;;;;;;;;;8.67;8.67;;;;;3.52;54.66;101135.59;5017877;28;47196;-70
2022/04/02 05:31:14;;;;;;;;;12.00;8.67;;;;;3.61;53.96;101134.22;5017717;28;45471;-69
2022/04/02 05:33:40;;;;;;;;;12.00;8.67;;;;;3.46;54.09;101130.72;5017892;28;45667;-69
2022/04/02 05:36:05;;;;;;;;;12.67;9.00;;;;;3.38;54.58;101143.44;5018385;28;45389;-68
2022/04/02 05:38:31;;;;;;;;;8.33;8.00;;;;;3.08;54.46;101098.75;5018757;28;45618;-67
2022/04/02 05:40:56;;;;;;;;;10.00;8.00;;;;;3.23;54.28;101113.66;5017876;28;45306;-69
2022/04/02 05:43:22;;;;;;;;;8.00;8.00;;;;;3.38;54.93;101142.59;5017970;28;45454;-67
2022/04/02 05:45:47;;;;;;;;;9.67;7.33;;;;;3.21;54.36;101122.56;5019436;28;45483;-68
2022/04/02 05:48:12;;;;;;;;;10.33;8.67;;;;;3.31;54.42;101137.69;5018918;28;45692;-70
2022/04/02 05:50:38;;;;;;;;;7.33;7.33;;;;;2.86;54.26;101058.88;5019215;28;45507;-69
2022/04/02 05:53:04;;;;;;;;;10.00;8.00;;;;;3.26;54.42;101131.84;5018068;28;45591;-69
2022/04/02 05:55:31;;;;;;;;;9.00;9.00;;;;;3.45;55.26;101149.19;5017962;28;45568;-68
2022/04/02 05:57:57;;;;;;;;;12.33;11.33;;;;;3.50;54.59;101161.13;5018959;28;46324;-69
2022/04/02 06:00:22;;;;;;;;;11.33;8.67;;;;;3.55;53.62;101163.50;5017285;28;45419;-69
2022/04/02 06:02:48;;;;;;;;;7.33;7.00;;;;;3.59;53.63;101173.72;5018689;28;45439;-68
2022/04/02 06:05:15;;;;;;;;;13.33;10.33;;;;;3.27;54.13;101114.31;5019104;28;45285;-69
2022/04/02 06:07:41;;;;;;;;;6.00;6.00;;;;;3.66;54.09;101175.09;5018886;28;46568;-69
2022/04/02 06:10:08;;;;;;;;;12.00;10.00;;;;;3.62;53.79;101162.22;5018563;28;45522;-69
2022/04/02 06:12:34;;;;;;;;;9.67;8.00;;;;;3.81;53.90;101180.41;5017438;28;45601;-67
2022/04/02 06:14:59;;;;;;;;;11.50;9.50;;;;;3.71;52.91;101160.81;5018659;28;45333;-68
2022/04/02 06:17:25;;;;;;;;;11.33;9.00;;;;;3.80;53.42;101186.56;5018342;28;47047;-70
2022/04/02 06:19:54;;;;;;;;;8.33;5.33;;;;;3.77;54.07;101171.81;5018638;28;45537;-69
2022/04/02 06:22:19;;;;;;;;;11.67;8.67;;;;;3.72;52.79;101152.84;5018670;28;45527;-70
2022/04/02 06:24:45;;;;;;;;;8.67;8.00;;;;;4.01;53.00;101182.69;5017424;28;45411;-68
2022/04/02 06:27:10;;;;;;;;;8.00;7.67;;;;;4.06;53.37;101198.19;5018541;28;45375;-68
2022/04/02 06:29:36;;;;;;;;;7.00;7.00;;;;;4.05;52.72;101185.97;5018635;28;45223;-68
2022/04/02 06:32:02;;;;;;;;;8.00;8.00;;;;;4.16;53.00;101188.81;5017506;28;45510;-68
2022/04/02 06:34:27;;;;;;;;;14.00;9.00;;;;;3.67;52.75;101129.44;5018223;28;45261;-68
2022/04/02 06:36:54;;;;;;;;;9.00;8.67;;;;;4.21;52.85;101186.75;5019018;28;45787;-68
2022/04/02 06:39:22;;;;;;;;;8.00;5.33;;;;;4.70;52.24;101200.41;5018881;28;45456;-69
2022/04/02 06:41:48;;;;;;;;;10.00;10.00;;;;;5.27;51.06;101204.72;5017144;28;45485;-67
2022/04/02 06:44:13;;;;;;;;;9.00;8.00;;;;;5.83;50.37;101179.06;5018408;28;45489;-69
2022/04/02 06:46:39;;;;;;;;;10.00;10.00;;;;;6.71;47.87;101209.94;5016559;28;47065;-70
2022/04/02 06:49:06;;;;;;;;;10.00;8.67;;;;;7.33;46.30;101209.88;5016874;28;45428;-69
2022/04/02 06:51:32;;;;;;;;;7.67;7.33;;;;;7.90;44.49;101202.09;5018283;28;45480;-69
2022/04/02 06:53:57;;;;;;;;;10.00;9.00;;;;;8.54;42.96;101220.19;5018433;28;45531;-69
2022/04/02 06:56:22;;;;;;;;;7.33;6.00;;;;;8.84;41.66;101204.53;5033231;28;47981;-68
2022/04/02 06:58:48;;;;;;;;;5.67;5.67;;;;;9.20;41.39;101215.78;5017850;28;45422;-69
2022/04/02 07:01:14;;;;;;;;;5.67;5.33;;;;;9.06;39.58;101158.56;5018235;28;45214;-70
2022/04/02 07:03:39;;;;;;;;;6.00;6.00;;;;;9.66;39.47;101207.59;5018382;28;45561;-68
2022/04/02 07:06:04;;;;;;;;;6.00;6.00;;;;;9.51;38.96;101216.81;5033515;28;47570;-68
2022/04/02 07:08:30;;;;;;;;;6.33;6.33;;;;;9.65;39.12;101223.66;5017581;28;45311;-68
2022/04/02 07:10:56;;;;;;;;;7.67;7.67;;;;;10.03;38.47;101223.97;5017941;28;46195;-68
2022/04/02 07:13:24;;;;;;;;;6.33;5.00;;;;;10.18;38.57;101221.81;5017764;28;45388;-68
2022/04/02 07:15:50;;;;;;;;;8.67;8.67;;;;;10.00;37.53;101223.34;5016883;28;46915;-68
2022/04/02 07:18:15;;;;;;;;;7.00;3.67;;;;;9.73;38.24;101162.78;5016362;28;45573;-69
2022/04/02 07:20:44;;;;;;;;;3.00;3.00;;;;;10.27;38.00;101217.59;5017799;28;45223;-68
2022/04/02 07:23:10;;;;;;;;;6.67;6.67;;;;;10.45;37.01;101231.97;5017957;28;45368;-69
2022/04/02 07:25:38;;;;;;;;;7.67;6.00;;;;;10.39;36.58;101248.41;5016687;28;46100;-69
2022/04/02 07:28:04;;;;;;;;;7.00;7.00;;;;;9.61;36.63;101138.13;5017149;28;45401;-69
2022/04/02 07:30:34;;;;;;;;;6.33;6.33;;;;;10.00;37.45;101226.00;5012860;28;45206;-68
2022/04/02 07:33:00;;;;;;;;;4.33;4.33;;;;;9.77;36.64;101174.81;4999832;28;45517;-68
2022/04/02 07:35:32;;;;;;;;;6.33;6.00;;;;;9.56;38.15;101235.84;5015739;28;45810;-68
2022/04/02 07:38:08;;;;;;;;;8.00;7.00;;;;;9.39;38.21;101186.81;5015526;28;45335;-68
2022/04/02 07:40:45;;;;;;;;;7.00;6.00;;;;;10.00;37.04;101242.78;5015856;28;45582;-69
2022/04/02 07:43:41;;;;;;;;;4.67;4.67;;;;;10.27;36.79;101246.81;5017162;28;45348;-71
2022/04/02 07:46:14;;;;;;;;;8.33;5.33;;;;;10.27;36.92;101247.66;5015151;28;46966;-69
2022/04/02 07:48:44;;;;;;;;;6.33;6.00;;;;;10.51;35.80;101260.69;5009711;28;45529;-70
2022/04/02 07:51:12;;;;;;;;;8.00;8.00;;;;;10.42;35.79;101234.88;5016889;28;45637;-68
2022/04/02 07:53:49;;;;;;;;;7.00;7.00;;;;;10.42;35.58;101266.78;5016495;28;45321;-70
2022/04/02 07:56:24;;;;;;;;;7.00;6.00;;;;;10.18;36.05;101259.00;5014611;28;47739;-69
2022/04/02 07:58:52;;;;;;;;;7.67;7.00;;;;;10.12;36.65;101256.03;5006581;28;46216;-69
2022/04/02 08:01:19;;;;;;;;;7.67;6.00;;;;;9.86;35.55;101176.72;5015822;28;45432;-67
2022/04/02 08:03:46;;;;;;;;;10.00;6.00;;;;;10.75;35.07;101255.06;5016679;28;45561;-72
2022/04/02 08:06:15;;;;;;;;;8.33;6.33;;;;;10.87;34.90;101266.47;5015182;28;48259;-69
2022/04/02 08:08:42;;;;;;;;;7.00;7.00;;;;;10.92;35.61;101282.88;5011986;28;45561;-69
2022/04/02 08:11:10;;;;;;;;;7.67;6.00;;;;;10.84;35.42;101264.91;4996955;28;45302;-67
2022/04/02 08:13:41;;;;;;;;;8.00;8.00;;;;;11.01;35.33;101262.59;5015782;28;45355;-73
2022/04/02 08:16:08;;;;;;;;;10.00;10.00;;;;;11.42;34.59;101274.94;5016161;28;46965;-68
2022/04/02 08:18:34;;;;;;;;;7.00;7.00;;;;;11.84;34.17;101267.59;5014329;28;45496;-68
2022/04/02 08:21:02;;;;;;;;;6.67;5.00;;;;;11.87;33.02;101254.00;5014629;28;45463;-68
2022/04/02 08:23:29;;;;;;;;;7.00;7.00;;;;;12.22;33.17;101265.91;5016332;28;45482;-70
2022/04/02 08:26:11;;;;;;;;;8.00;6.33;;;;;12.25;32.68;101273.63;5016210;28;45788;-67
2022/04/02 08:29:22;;;;;;;;;6.00;6.00;;;;;11.82;32.11;101241.09;5016255;28;45285;-70
2022/04/02 08:32:03;;;;;;;;;5.67;5.67;;;;;11.74;31.87;101274.69;4985305;28;45414;-66
2022/04/02 08:35:02;;;;;;;;;8.33;8.33;;;;;12.07;31.87;101277.00;5005823;28;45223;-68
2022/04/02 08:37:51;;;;;;;;;6.00;6.00;;;;;12.18;31.67;101273.31;5015944;28;46605;-75
2022/04/02 08:40:54;;;;;;;;;5.00;5.00;;;;;11.79;30.17;101173.91;5010417;28;45480;-70
2022/04/02 08:43:47;;;;;;;;;9.00;6.33;;;;;12.08;30.81;101269.84;5014795;28;45287;-75
2022/04/02 08:46:35;;;;;;;;;5.33;4.33;;;;;11.71;30.95;101262.50;5019463;28;45633;-76
2022/04/02 08:49:36;;;;;;;;;4.33;4.33;;;;;11.90;30.34;101267.03;5019906;28;46378;-71
2022/04/02 08:52:13;;;;;;;;;9.67;7.67;;;;;12.12;29.95;101281.91;5019938;28;45356;-67
2022/04/02 08:55:00;;;;;;;;;4.67;3.33;;;;;11.82;29.43;101270.41;5014871;28;45287;-71
2022/04/02 08:57:38;;;;;;;;;7.00;5.00;;;;;12.12;29.88;101281.91;4986738;28;45528;-67
2022/04/02 09:00:10;;;;;;;;;6.00;5.00;;;;;12.16;29.16;101219.31;5019257;28;45578;-69
2022/04/02 09:02:57;;;;;;;;;8.67;7.00;;;;;13.27;28.11;101283.44;5019061;28;45305;-66
2022/04/02 09:06:04;;;;;;;;;5.00;5.00;;;;;12.86;28.08;101291.88;5018589;28;45353;-69
2022/04/02 09:08:50;;;;;;;;;0.00;0.00;;;;;12.59;28.64;101287.31;4988910;28;45371;-70
2022/04/02 09:11:25;;;;;;;;;7.67;7.67;;;;;12.92;28.31;101276.13;5019217;28;46530;-69
2022/04/02 09:14:12;;;;;;;;;12.00;10.00;;;;;12.81;28.64;101300.31;5019377;28;45440;-67
2022/04/02 09:16:59;;;;;;;;;5.33;5.33;;;;;12.56;28.38;101308.94;5018753;28;45358;-68
2022/04/02 09:19:29;;;;;;;;;8.33;7.00;;;;;12.67;28.54;101287.44;5019404;28;45376;-68
2022/04/02 09:21:58;;;;;;;;;6.67;5.00;;;;;12.81;28.47;101305.63;5018247;28;45708;-69
2022/04/02 09:24:57;;;;;;;;;5.00;5.00;;;;;12.54;28.92;101301.06;5019307;28;45548;-69
2022/04/02 09:28:00;;;;;;;;;6.00;6.00;;;;;12.19;29.23;101289.19;5020916;28;45357;-78
2022/04/02 09:30:47;;;;;;;;;4.67;3.33;;;;;12.37;28.80;101291.97;5018140;28;45437;-70
2022/04/02 09:33:21;;;;;;;;;4.00;3.00;;;;;13.31;27.82;101297.34;5018646;28;45287;-68
2022/04/02 09:35:57;;;;;;;;;5.33;5.33;;;;;14.23;26.09;101265.06;5018766;28;45428;-68
2022/04/02 09:39:11;;;;;;;;;7.33;6.00;;;;;14.51;25.74;101308.59;5017773;28;45258;-68
2022/04/02 09:41:57;;;;;;;;;6.67;4.33;;;;;13.85;25.67;101308.97;5010101;28;45554;-67
2022/04/02 09:45:03;;;;;;;;;4.00;4.00;;;;;14.08;25.43;101296.84;5016815;28;46174;-66
2022/04/02 09:47:46;;;;;;;;;5.00;5.00;;;;;13.25;26.15;101265.91;5018463;28;45480;-67
2022/04/02 09:50:13;;;;;;;;;6.67;5.33;;;;;13.15;26.12;101294.44;5017779;28;45435;-67
2022/04/02 09:53:08;;;;;;;;;5.33;5.00;;;;;12.84;25.86;101307.19;5017411;28;45431;-68
2022/04/02 09:55:55;;;;;;;;;5.00;5.00;;;;;13.40;25.58;101307.13;5018586;28;45906;-66
2022/04/02 09:58:33;;;;;;;;;27.33;25.00;;;;;14.09;25.03;101306.53;5018832;28;45418;-69
2022/04/02 10:01:06;;;;;;;;;2.33;1.67;;;;;14.81;23.50;101304.59;5017687;28;45524;-68
2022/04/02 10:04:04;;;;;;;;;5.67;4.33;;;;;14.63;23.31;101296.66;5019023;28;45569;-68
2022/04/02 10:06:38;;;;;;;;;3.33;3.00;;;;;13.99;24.45;101298.59;5017971;28;46178;-69
2022/04/02 10:09:11;;;;;;;;;7.67;5.00;;;;;13.72;24.82;101297.81;5018552;28;45412;-68
2022/04/02 10:12:07;;;;;;;;;3.33;3.33;;;;;12.91;26.30;101295.78;5019007;28;45349;-67
2022/04/02 10:14:36;;;;;;;;;5.00;5.00;;;;;12.88;26.60;101280.06;5011574;28;45350;-68
2022/04/02 10:17:04;;;;;;;;;6.00;6.00;;;;;12.58;26.91;101301.63;5018613;28;46689;-67
2022/04/02 10:19:34;;;;;;;;;6.00;6.00;;;;;11.46;27.22;101237.25;5018282;28;45423;-69
2022/04/02 10:22:11;;;;;;;;;2.33;2.33;;;;;11.27;28.16;101303.75;5018532;28;45297;-68
2022/04/02 10:24:47;;;;;;;;;5.67;5.00;;;;;10.91;28.87;101323.75;5017210;28;45473;-69
2022/04/02 10:27:23;;;;;;;;;5.00;5.00;;;;;10.18;29.04;101239.56;5016896;28;49309;-69
2022/04/02 10:30:01;;;;;;;;;6.67;5.67;;;;;10.21;29.81;101292.47;5018332;28;45465;-69
2022/04/02 10:32:52;;;;;;;;;7.67;6.00;;;;;10.11;30.07;101320.78;5018091;28;45312;-69
2022/04/02 10:35:21;;;;;;;;;6.33;5.67;;;;;9.52;30.93;101287.50;5017148;28;45494;-68
2022/04/02 10:38:09;;;;;;;;;6.67;5.33;;;;;9.08;31.37;101224.75;5017731;28;45780;-69
2022/04/02 10:40:52;;;;;;;;;6.33;5.00;;;;;9.18;31.43;101309.72;5017999;28;45281;-68
2022/04/02 10:43:30;;;;;;;;;5.00;5.00;;;;;8.88;32.08;101313.84;5018159;28;45303;-75
2022/04/02 10:45:57;;;;;;;;;5.33;4.33;;;;;8.56;32.62;101312.81;5018230;28;45519;-67
2022/04/02 10:48:46;;;;;;;;;4.33;3.67;;;;;8.65;32.81;101306.81;5017898;28;45920;-68
2022/04/02 10:51:13;;;;;;;;;4.00;4.00;;;;;8.51;32.71;101298.13;5016816;28;45412;-66
2022/04/02 10:53:43;;;;;;;;;3.33;3.33;;;;;8.28;32.36;101298.97;5018453;28;45493;-68
2022/04/02 10:56:17;;;;;;;;;3.67;3.00;;;;;8.35;31.95;101300.22;5018295;28;45463;-69
2022/04/02 10:58:56;;;;;;;;;3.00;3.00;;;;;8.44;31.36;101293.41;5016411;28;46280;-68
2022/04/02 11:01:25;;;;;;;;;5.00;5.00;;;;;8.57;31.99;101302.09;4997902;28;45528;-66
2022/04/02 11:03:56;;;;;;;;;4.00;4.00;;;;;8.76;31.69;101302.38;4996225;28;45489;-68
2022/04/02 11:06:44;;;;;;;;;4.33;4.33;;;;;8.67;31.21;101305.75;4994902;28;45601;-68
2022/04/02 11:09:27;;;;;;;;;6.67;5.67;;;;;8.80;31.25;101295.84;4995459;28;47239;-69
2022/04/02 11:11:53;;;;;;;;;4.67;4.67;;;;;8.83;30.60;101306.25;4995582;28;45426;-68
2022/04/02 11:14:20;;;;;;;;;8.33;5.67;;;;;8.91;30.30;101294.19;4994587;28;45377;-66
2022/04/02 11:16:49;;;;;;;;;6.67;5.33;;;;;8.64;31.34;101286.59;5014168;28;45543;-68
2022/04/02 11:22:11;;;;;;;;;4.00;4.00;;;;;8.45;31.68;101317.13;5017544;28;45399;-67
2022/04/02 11:24:56;;;;;;;;;4.00;3.00;;;;;8.19;32.58;101278.47;5016429;28;45399;-68
2022/04/02 11:27:24;;;;;;;;;4.00;4.00;;;;;8.35;31.90;101294.09;5017727;28;45418;-68
2022/04/02 11:29:51;;;;;;;;;4.00;4.00;;;;;8.32;31.22;101304.88;5017372;28;46763;-67
2022/04/02 11:32:25;;;;;;;;;4.00;4.00;;;;;8.19;32.07;101289.91;5017089;28;45422;-66
2022/04/02 11:34:51;;;;;;;;;4.00;4.00;;;;;8.21;32.31;101290.66;5016103;28;45434;-66
2022/04/02 11:37:23;;;;;;;;;5.33;5.00;;;;;8.45;31.45;101297.75;5017611;28;45377;-69
2022/04/02 11:39:56;;;;;;;;;4.00;4.00;;;;;8.43;31.51;101297.03;5016812;28;45770;-68
2022/04/02 11:42:33;;;;;;;;;1.00;1.00;;;;;8.29;31.33;101307.78;5032467;28;45474;-67
2022/04/02 11:45:11;;;;;;;;;4.67;3.00;;;;;8.14;31.62;101286.78;5012056;28;45469;-67
2022/04/02 11:47:54;;;;;;;;;5.67;4.00;;;;;8.14;31.87;101286.78;4997607;28;45192;-68
2022/04/02 11:50:30;;;;;;;;;3.67;2.67;;;;;8.22;30.01;101297.66;4997247;28;46641;-67
2022/04/02 11:52:58;;;;;;;;;4.00;4.00;;;;;8.29;31.04;101321.88;4997552;28;45502;-67
2022/04/02 11:55:35;;;;;;;;;2.67;2.00;;;;;8.04;32.00;101317.56;4997359;28;45438;-67